Time;durP1;ratioP1;P1;durP2;ratioP2;P2;SDS_P1;SDS_P2;PMS_P1;PMS_P2;Temp;Humidity;BMP_temperature;BMP_pressure;BME280_temperature;BME280_humidity;BME280_pressure;Samples;Min_cycle;Max_cycle;Signal;HPM_P1;HPM_P2
2022/03/17 00:00:56;;;;;;;41.30;26.73;;;;;;;6.77;nan;99986.31;4924227;29;20804;-75
2022/03/17 00:03:22;;;;;;;40.92;24.83;;;;;;;6.77;nan;99991.53;4928796;29;20230;-75
2022/03/17 00:05:48;;;;;;;40.50;23.25;;;;;;;6.78;nan;99980.19;4927999;29;20689;-75
2022/03/17 00:08:17;;;;;;;33.40;22.07;;;;;;;6.81;nan;99985.28;4926606;29;20217;-75
2022/03/17 00:10:43;;;;;;;40.95;24.23;;;;;;;6.85;nan;99985.06;4928057;29;20306;-75
2022/03/17 00:13:08;;;;;;;38.40;26.00;;;;;;;6.86;nan;99997.22;4926485;29;21002;-75
2022/03/17 00:15:34;;;;;;;33.60;22.60;;;;;;;6.90;nan;99995.31;4927929;29;20236;-75
2022/03/17 00:17:59;;;;;;;37.17;24.07;;;;;;;6.94;nan;99990.81;4925861;29;20229;-75
2022/03/17 00:20:25;;;;;;;39.40;25.93;;;;;;;6.95;nan;100000.34;4926363;29;21160;-75
2022/03/17 00:22:50;;;;;;;34.77;22.20;;;;;;;6.94;nan;99993.41;4928148;29;20233;-75
2022/03/17 00:25:17;;;;;;;40.80;25.30;;;;;;;6.94;nan;99996.91;4926016;29;20210;-75
2022/03/17 00:27:43;;;;;;;45.30;27.40;;;;;;;6.95;nan;99989.91;4928106;29;20198;-74
2022/03/17 00:30:09;;;;;;;34.13;22.93;;;;;;;6.95;nan;99993.38;4926576;29;20237;-75
2022/03/17 00:32:35;;;;;;;43.15;29.60;;;;;;;6.97;nan;99994.16;4925199;29;20809;-75
2022/03/17 00:37:46;;;;;;;40.60;24.90;;;;;;;6.96;nan;99997.66;4923308;29;20333;-75
2022/03/17 00:40:13;;;;;;;33.80;22.77;;;;;;;6.98;nan;99997.59;4925809;29;20336;-75
2022/03/17 00:42:39;;;;;;;31.85;23.33;;;;;;;6.96;nan;100004.66;4926538;29;20316;-75
2022/03/17 00:45:05;;;;;;;41.37;25.17;;;;;;;6.97;nan;100004.59;4923541;29;20708;-75
2022/03/17 00:47:30;;;;;;;37.13;22.10;;;;;;;6.95;nan;100006.41;4927795;29;20206;-75
2022/03/17 00:49:55;;;;;;;36.57;22.50;;;;;;;6.93;nan;100010.00;4924441;29;20284;-74
2022/03/17 00:52:21;;;;;;;36.33;24.63;;;;;;;6.91;nan;100004.00;4927524;29;20221;-75
2022/03/17 00:54:47;;;;;;;38.87;23.60;;;;;;;6.91;nan;100017.06;4928176;29;20272;-74
2022/03/17 00:57:13;;;;;;;34.22;21.92;;;;;;;6.92;nan;100000.50;4924101;29;20781;-75
2022/03/17 00:59:40;;;;;;;36.20;24.30;;;;;;;6.93;nan;100008.25;4927575;29;20978;-75
2022/03/17 01:02:06;;;;;;;40.47;26.10;;;;;;;6.94;nan;100011.69;4925292;29;20520;-76
2022/03/17 01:04:33;;;;;;;32.78;24.55;;;;;;;6.86;nan;100009.44;4925304;29;20454;-75
2022/03/17 01:06:58;;;;;;;32.50;23.98;;;;;;;6.83;nan;100013.03;4927180;29;20209;-75
2022/03/17 01:09:24;;;;;;;35.13;22.57;;;;;;;6.84;nan;100017.31;4925466;29;20229;-75
2022/03/17 01:11:49;;;;;;;44.70;23.70;;;;;;;6.83;nan;100012.16;4922680;29;20256;-75
2022/03/17 01:14:15;;;;;;;35.13;22.23;;;;;;;6.81;nan;99999.16;4926528;29;20288;-75
2022/03/17 01:16:41;;;;;;;33.80;22.50;;;;;;;6.82;nan;100010.47;4921973;29;20224;-74
2022/03/17 01:19:07;;;;;;;36.13;21.58;;;;;;;6.82;nan;100013.06;4926478;29;20285;-74
2022/03/17 01:21:32;;;;;;;35.93;24.03;;;;;;;6.82;nan;100016.53;4925872;29;20360;-75
2022/03/17 01:23:58;;;;;;;34.90;20.87;;;;;;;6.79;nan;100011.44;4926582;29;20244;-75
2022/03/17 01:26:23;;;;;;;30.53;22.43;;;;;;;6.75;nan;100012.50;4926946;29;20245;-75
2022/03/17 01:28:49;;;;;;;38.70;23.30;;;;;;;6.70;nan;100009.22;4926245;29;21041;-75
2022/03/17 01:31:15;;;;;;;32.22;21.95;;;;;;;6.66;nan;100018.06;4921523;29;20489;-75
2022/03/17 01:33:40;;;;;;;37.80;21.90;;;;;;;6.63;nan;100020.81;4922607;29;20237;-75
2022/03/17 01:36:06;;;;;;;44.33;20.63;;;;;;;6.61;nan;100020.84;4923952;29;20225;-75
2022/03/17 01:38:31;;;;;;;45.40;24.97;;;;;;;6.59;nan;100025.31;4922259;29;20201;-74
2022/03/17 01:40:57;;;;;;;32.40;23.60;;;;;;;6.59;nan;100022.72;4924140;29;20208;-74
2022/03/17 01:43:22;;;;;;;32.47;21.67;;;;;;;6.62;nan;100017.34;4922991;29;21169;-74
2022/03/17 01:45:47;;;;;;;35.30;23.30;;;;;;;6.66;nan;100015.47;4925993;29;20206;-75
2022/03/17 01:48:13;;;;;;;36.37;25.33;;;;;;;6.66;nan;100012.84;4922260;29;20217;-74
2022/03/17 01:50:38;;;;;;;37.27;25.20;;;;;;;6.63;nan;100013.81;4927801;29;20253;-75
2022/03/17 01:53:04;;;;;;;36.50;22.30;;;;;;;6.61;nan;100015.63;4927956;29;20237;-74
2022/03/17 01:55:30;;;;;;;38.77;23.33;;;;;;;6.62;nan;100027.78;4927062;29;20759;-74
2022/03/17 01:57:56;;;;;;;39.60;23.95;;;;;;;6.66;nan;100031.13;4926600;29;20213;-74
2022/03/17 02:00:22;;;;;;;41.20;22.40;;;;;;;6.70;nan;100026.63;4922453;29;20516;-74
2022/03/17 02:02:50;;;;;;;46.17;28.65;;;;;;;6.75;nan;100025.53;4926033;29;20572;-74
2022/03/17 02:05:17;;;;;;;35.20;24.23;;;;;;;6.75;nan;100033.38;4927108;29;20213;-74
2022/03/17 02:07:47;;;;;;;35.67;21.90;;;;;;;6.76;nan;100035.06;4930079;29;21154;-74
2022/03/17 02:10:12;;;;;;;34.45;22.05;;;;;;;6.77;nan;100028.06;4929811;29;20219;-74
2022/03/17 02:15:22;;;;;;;35.13;24.27;;;;;;;6.72;nan;100028.25;4929602;29;20228;-74
2022/03/17 02:17:48;;;;;;;32.60;20.53;;;;;;;6.73;nan;100029.97;4927456;29;20213;-74
2022/03/17 02:20:15;;;;;;;45.80;24.33;;;;;;;6.76;nan;100029.84;4928053;29;20252;-74
2022/03/17 02:22:47;;;;;;;31.02;21.42;;;;;;;6.79;nan;100026.25;4926854;29;20225;-74
2022/03/17 02:27:59;;;;;;;34.40;23.38;;;;;;;6.67;nan;100032.84;4929146;29;20213;-75
2022/03/17 02:30:26;;;;;;;31.77;20.95;;;;;;;6.61;nan;100039.13;4930775;29;20248;-75
2022/03/17 02:32:59;;;;;;;40.95;28.40;;;;;;;6.59;nan;100033.16;4929111;29;20497;-74
2022/03/17 02:35:25;;;;;;;39.65;23.63;;;;;;;6.55;nan;100039.38;4928245;29;20216;-75
2022/03/17 02:37:51;;;;;;;36.10;23.27;;;;;;;6.54;nan;100042.06;4925938;29;20206;-75
2022/03/17 02:40:17;;;;;;;36.27;22.30;;;;;;;6.55;nan;100048.97;4928496;29;20257;-75
2022/03/17 02:42:43;;;;;;;39.42;24.08;;;;;;;6.53;nan;100042.97;4927761;29;20479;-75
2022/03/17 02:45:12;;;;;;;39.23;25.47;;;;;;;6.54;nan;100047.28;4924804;29;20202;-75
2022/03/17 02:47:39;;;;;;;37.13;22.73;;;;;;;6.58;nan;100044.47;4924922;29;20576;-75
2022/03/17 02:50:07;;;;;;;37.15;25.42;;;;;;;6.63;nan;100045.16;4928240;29;20202;-75
2022/03/17 02:52:32;;;;;;;35.08;20.90;;;;;;;6.66;nan;100049.41;4925966;29;20237;-74
2022/03/17 02:54:59;;;;;;;32.00;22.27;;;;;;;6.68;nan;100047.56;4928119;29;20884;-74
2022/03/17 02:57:25;;;;;;;36.15;22.40;;;;;;;6.69;nan;100041.44;4931976;29;20245;-74
2022/03/17 02:59:54;;;;;;;40.47;23.97;;;;;;;6.67;nan;100048.50;4932606;29;20247;-74
2022/03/17 03:02:21;;;;;;;41.25;28.00;;;;;;;6.68;nan;100047.56;4928746;29;20503;-74
2022/03/17 03:04:46;;;;;;;33.58;24.15;;;;;;;6.67;nan;100052.84;4931099;29;20264;-74
2022/03/17 03:07:12;;;;;;;36.70;21.57;;;;;;;6.65;nan;100052.94;4930774;29;20229;-74
2022/03/17 03:09:37;;;;;;;34.33;20.57;;;;;;;6.62;nan;100056.50;4932040;29;20292;-74
2022/03/17 03:12:03;;;;;;;44.50;21.00;;;;;;;6.58;nan;100054.06;4926305;29;20285;-75
2022/03/17 03:14:30;;;;;;;30.90;20.97;;;;;;;6.54;nan;100058.56;4932371;29;20229;-74
2022/03/17 03:16:56;;;;;;;42.38;22.05;;;;;;;6.51;nan;100063.06;4932344;29;20476;-75
2022/03/17 03:19:22;;;;;;;34.22;19.77;;;;;;;6.49;nan;100067.50;4932834;29;20228;-75
2022/03/17 03:21:47;;;;;;;39.67;22.53;;;;;;;6.48;nan;100063.19;4929980;29;20241;-74
2022/03/17 03:24:14;;;;;;;37.97;23.93;;;;;;;6.48;nan;100073.63;4926765;29;20221;-74
2022/03/17 03:26:43;;;;;;;40.08;22.20;;;;;;;6.50;nan;100070.03;4933570;29;20205;-75
2022/03/17 03:29:20;;;;;;;37.10;26.75;;;;;;;6.52;nan;100072.59;4930686;29;20233;-75
2022/03/17 03:31:46;;;;;;;44.47;26.85;;;;;;;6.52;nan;100072.59;4932153;29;20488;-75
2022/03/17 03:34:11;;;;;;;37.93;23.47;;;;;;;6.49;nan;100070.97;4933587;29;20213;-74
2022/03/17 03:39:21;;;;;;;45.15;25.10;;;;;;;6.45;nan;100078.97;4934013;29;20208;-75
2022/03/17 03:41:46;;;;;;;36.77;24.10;;;;;;;6.43;nan;100073.81;4931598;29;20205;-74
2022/03/17 03:44:14;;;;;;;35.07;24.47;;;;;;;6.42;nan;100072.09;4931558;29;20217;-74
2022/03/17 03:46:43;;;;;;;40.17;21.92;;;;;;;6.45;nan;100079.81;4934926;29;20224;-74
2022/03/17 03:49:09;;;;;;;36.33;22.80;;;;;;;6.49;nan;100083.16;4929554;29;21253;-75
2022/03/17 03:51:34;;;;;;;32.77;20.97;;;;;;;6.52;nan;100086.50;4931106;29;20198;-75
2022/03/17 03:54:18;;;;;;;41.13;24.60;;;;;;;6.56;nan;100089.81;4929054;29;20706;-75
2022/03/17 03:56:49;;;;;;;38.47;24.30;;;;;;;6.60;nan;100089.66;4933701;29;20205;-75
2022/03/17 03:59:23;;;;;;;34.45;22.33;;;;;;;6.63;nan;100099.13;4937636;29;20312;-75
2022/03/17 04:01:50;;;;;;;40.97;24.90;;;;;;;6.66;nan;100096.38;4945181;29;20555;-73
2022/03/17 04:04:19;;;;;;;42.10;22.50;;;;;;;6.67;nan;100092.00;4944208;29;20488;-75
2022/03/17 04:06:50;;;;;;;35.67;21.67;;;;;;;6.64;nan;100098.19;4935245;29;20224;-75
2022/03/17 04:09:17;;;;;;;31.42;22.35;;;;;;;6.58;nan;100094.06;4931644;29;20228;-76
2022/03/17 04:11:43;;;;;;;31.92;20.27;;;;;;;6.50;nan;100109.19;4931215;29;20212;-75
2022/03/17 04:14:10;;;;;;;36.50;22.05;;;;;;;6.39;nan;100101.75;4933929;29;20209;-75
2022/03/17 04:16:35;;;;;;;34.08;21.77;;;;;;;6.30;nan;100107.34;4932677;29;20201;-75
2022/03/17 04:19:01;;;;;;;32.27;21.63;;;;;;;6.25;nan;100106.66;4924213;29;20744;-75
2022/03/17 04:21:27;;;;;;;31.97;22.37;;;;;;;6.29;nan;100105.66;4947851;29;20205;-76
2022/03/17 04:23:52;;;;;;;36.10;22.70;;;;;;;6.32;nan;100110.75;4945146;28;20324;-75
2022/03/17 04:26:18;;;;;;;34.93;22.63;;;;;;;6.34;nan;100111.53;4927522;29;20456;-75
2022/03/17 04:28:43;;;;;;;33.20;22.80;;;;;;;6.37;nan;100108.81;4945754;29;20224;-75
2022/03/17 04:31:09;;;;;;;41.20;23.37;;;;;;;6.39;nan;100104.38;4943711;29;20201;-75
2022/03/17 04:33:34;;;;;;;33.57;21.23;;;;;;;6.43;nan;100107.75;4944019;29;20209;-75
2022/03/17 04:36:02;;;;;;;43.80;23.27;;;;;;;6.46;nan;100109.38;4946509;29;20220;-75
2022/03/17 04:38:27;;;;;;;44.30;24.13;;;;;;;6.47;nan;100114.53;4932534;28;20754;-75
2022/03/17 04:40:52;;;;;;;39.40;26.80;;;;;;;6.49;nan;100117.94;4938442;29;20217;-74
2022/03/17 04:43:18;;;;;;;41.03;22.90;;;;;;;6.52;nan;100124.78;4938667;29;20236;-75
2022/03/17 04:45:45;;;;;;;38.73;23.13;;;;;;;6.53;nan;100114.28;4910286;29;20242;-75
2022/03/17 04:48:11;;;;;;;41.95;24.73;;;;;;;6.53;nan;100124.72;4921739;29;20496;-75
2022/03/17 04:50:36;;;;;;;46.45;25.23;;;;;;;6.54;nan;100131.66;4923920;29;20566;-76
2022/03/17 04:55:46;;;;;;;37.42;22.88;;;;;;;6.60;nan;100133.19;4925079;29;20213;-74
2022/03/17 04:58:12;;;;;;;39.10;23.47;;;;;;;6.62;nan;100131.38;4924828;29;20213;-75
2022/03/17 05:00:38;;;;;;;29.67;21.48;;;;;;;6.62;nan;100139.19;4927569;29;20603;-75
2022/03/17 05:03:03;;;;;;;44.08;29.27;;;;;;;6.67;nan;100150.31;4920596;29;21016;-75
2022/03/17 05:05:29;;;;;;;42.63;24.03;;;;;;;6.68;nan;100152.00;4907929;29;20221;-75
2022/03/17 05:07:57;;;;;;;34.37;24.20;;;;;;;6.64;nan;100142.56;4922776;29;20212;-75
2022/03/17 05:10:23;;;;;;;37.85;26.00;;;;;;;6.63;nan;100146.94;4922634;29;20612;-75
2022/03/17 05:12:48;;;;;;;38.15;23.60;;;;;;;6.63;nan;100149.56;4924493;29;20609;-75
2022/03/17 05:15:14;;;;;;;34.17;22.90;;;;;;;6.63;nan;100146.94;4927254;29;20683;-75
2022/03/17 05:17:40;;;;;;;35.40;23.40;;;;;;;6.63;nan;100153.94;4925226;29;20222;-75
2022/03/17 05:20:10;;;;;;;32.08;22.45;;;;;;;6.64;nan;100153.88;4924844;29;20265;-75
2022/03/17 05:22:36;;;;;;;39.42;24.45;;;;;;;6.65;nan;100146.91;4923742;29;20312;-75
2022/03/17 05:25:04;;;;;;;53.03;32.40;;;;;;;6.64;nan;100155.63;4925862;29;20641;-75
2022/03/17 05:27:30;;;;;;;46.45;29.15;;;;;;;6.67;nan;100158.13;4926544;29;20216;-75
2022/03/17 05:29:56;;;;;;;37.60;25.70;;;;;;;6.69;nan;100164.13;4926304;29;20213;-75
2022/03/17 05:32:21;;;;;;;41.83;25.57;;;;;;;6.69;nan;100164.13;4924108;29;20489;-75
2022/03/17 05:34:47;;;;;;;38.30;25.80;;;;;;;6.70;nan;100171.06;4925498;29;20198;-75
2022/03/17 05:37:14;;;;;;;40.30;26.38;;;;;;;6.69;nan;100177.19;4924933;29;20328;-75
2022/03/17 05:39:40;;;;;;;39.33;23.30;;;;;;;6.66;nan;100187.75;4927834;29;20884;-74
2022/03/17 05:42:06;;;;;;;36.47;25.58;;;;;;;6.61;nan;100193.13;4928355;29;20229;-75
2022/03/17 05:44:32;;;;;;;35.45;23.65;;;;;;;6.61;nan;100190.53;4928521;29;20236;-75
2022/03/17 05:46:57;;;;;;;39.60;25.83;;;;;;;6.62;nan;100201.84;4927363;29;20777;-75
2022/03/17 05:49:23;;;;;;;38.67;24.90;;;;;;;6.63;nan;100208.75;4925669;29;20236;-75
2022/03/17 05:51:48;;;;;;;37.67;25.07;;;;;;;6.62;nan;100202.69;4923700;29;20675;-74
2022/03/17 05:54:13;;;;;;;38.97;26.37;;;;;;;6.65;nan;100209.56;4923069;29;20205;-75
2022/03/17 05:56:39;;;;;;;36.50;24.60;;;;;;;6.67;nan;100215.56;4924729;29;20221;-74
2022/03/17 05:59:04;;;;;;;37.00;22.83;;;;;;;6.69;nan;100223.31;4922724;29;20216;-74
2022/03/17 06:01:29;;;;;;;37.95;25.52;;;;;;;6.69;nan;100226.78;4904648;29;20508;-73
2022/03/17 06:03:56;;;;;;;41.60;25.37;;;;;;;6.69;nan;100223.31;4923595;29;20233;-75
2022/03/17 06:06:21;;;;;;;47.55;28.77;;;;;;;6.70;nan;100233.72;4904093;29;20213;-74
2022/03/17 06:08:47;;;;;;;39.70;24.50;;;;;;;6.71;nan;100226.75;4904182;29;20244;-75
2022/03/17 06:11:12;;;;;;;37.63;25.07;;;;;;;6.73;nan;100228.38;4921822;29;20231;-75
2022/03/17 06:13:37;;;;;;;38.83;24.83;;;;;;;6.69;nan;100231.16;4921062;29;20229;-75
2022/03/17 06:16:05;;;;;;;41.27;24.60;;;;;;;6.67;nan;100235.56;4922463;29;20263;-74
2022/03/17 06:18:31;;;;;;;39.05;25.98;;;;;;;6.68;nan;100243.38;4918845;29;20292;-74
2022/03/17 06:20:56;;;;;;;37.47;24.50;;;;;;;6.72;nan;100244.94;4923545;29;20694;-75
2022/03/17 06:23:21;;;;;;;38.80;24.83;;;;;;;6.75;nan;100247.47;4918965;29;20229;-74
2022/03/17 06:25:48;;;;;;;38.70;25.53;;;;;;;6.77;nan;100256.06;4920736;29;20205;-74
2022/03/17 06:28:15;;;;;;;36.20;23.63;;;;;;;6.81;nan;100262.88;4919782;29;20316;-74
2022/03/17 06:30:41;;;;;;;39.17;24.92;;;;;;;6.85;nan;100267.06;4918392;29;20209;-74
2022/03/17 06:33:07;;;;;;;45.55;30.73;;;;;;;6.94;nan;100265.00;4917706;29;20538;-74
2022/03/17 06:35:33;;;;;;;42.35;26.90;;;;;;;6.95;nan;100266.75;4920577;29;20244;-74
2022/03/17 06:38:00;;;;;;;33.78;22.58;;;;;;;6.93;nan;100273.78;4918842;29;20220;-74
2022/03/17 06:40:29;;;;;;;36.35;24.33;;;;;;;6.95;nan;100275.41;4921931;29;20228;-74
2022/03/17 06:42:55;;;;;;;35.47;22.75;;;;;;;6.99;nan;100286.59;4923403;29;20631;-75
2022/03/17 06:45:23;;;;;;;34.00;23.08;;;;;;;7.03;nan;100283.81;4924719;29;20694;-73
2022/03/17 06:47:48;;;;;;;30.10;22.33;;;;;;;7.06;nan;100282.84;4924790;29;20205;-74
2022/03/17 06:50:15;;;;;;;36.77;23.37;;;;;;;7.11;nan;100288.75;4923411;29;20230;-74
2022/03/17 06:52:41;;;;;;;35.15;22.90;;;;;;;7.15;nan;100289.47;4925355;29;20316;-75
2022/03/17 06:55:08;;;;;;;41.83;25.40;;;;;;;7.18;nan;100287.59;4927594;29;20297;-75
2022/03/17 06:57:33;;;;;;;35.35;22.23;;;;;;;7.20;nan;100290.16;4924536;29;20292;-74
2022/03/17 06:59:58;;;;;;;28.97;20.90;;;;;;;7.23;nan;100287.41;4928709;29;20352;-73
2022/03/17 07:02:24;;;;;;;34.57;24.43;;;;;;;7.30;nan;100291.50;4925630;29;20532;-74
2022/03/17 07:04:49;;;;;;;38.60;25.97;;;;;;;7.30;nan;100294.97;4927830;29;20221;-74
2022/03/17 07:07:15;;;;;;;37.00;22.83;;;;;;;7.34;nan;100297.44;4927593;29;20217;-74
2022/03/17 07:09:41;;;;;;;30.27;21.00;;;;;;;7.37;nan;100299.94;4926812;29;20225;-74
2022/03/17 07:12:07;;;;;;;30.97;19.70;;;;;;;7.42;nan;100308.44;4927513;29;20503;-74
2022/03/17 07:14:33;;;;;;;30.67;19.65;;;;;;;7.47;nan;100302.13;4922441;29;20667;-74
2022/03/17 07:16:58;;;;;;;44.10;24.00;;;;;;;7.52;nan;100304.56;4926168;29;20221;-74
2022/03/17 07:19:24;;;;;;;41.10;28.37;;;;;;;7.58;nan;100303.47;4927787;29;20216;-73
2022/03/17 07:21:52;;;;;;;31.90;24.73;;;;;;;7.64;nan;100303.22;4926896;29;20213;-74
2022/03/17 07:24:17;;;;;;;51.13;25.85;;;;;;;7.70;nan;100306.44;4926822;29;20248;-74
2022/03/17 07:26:43;;;;;;;36.73;23.60;;;;;;;7.75;nan;100301.88;4893602;29;20402;-74
2022/03/17 07:29:09;;;;;;;33.53;24.30;;;;;;;7.82;nan;100312.09;4908132;29;20673;-74
2022/03/17 07:31:34;;;;;;;44.73;27.23;;;;;;;7.88;nan;100311.81;4910386;29;20589;-75
2022/03/17 07:34:00;;;;;;;33.43;22.60;;;;;;;7.97;nan;100316.69;4908389;29;20588;-76
2022/03/17 07:36:26;;;;;;;29.07;19.33;;;;;;;8.07;nan;100307.53;4912533;29;20221;-74
2022/03/17 07:38:54;;;;;;;28.08;19.38;;;;;;;8.17;nan;100308.84;4911004;29;20225;-74
2022/03/17 07:41:19;;;;;;;32.97;21.88;;;;;;;8.28;nan;100313.63;4908874;29;20357;-76
2022/03/17 07:43:46;;;;;;;35.30;24.00;;;;;;;8.36;nan;100322.00;4911289;29;20730;-74
2022/03/17 07:46:35;;;;;;;31.35;23.08;;;;;;;8.43;nan;100320.00;4917675;29;20256;-74
2022/03/17 07:49:28;;;;;;;34.10;22.27;;;;;;;8.51;nan;100319.69;4899711;29;20228;-77
2022/03/17 07:51:54;;;;;;;30.75;21.77;;;;;;;8.57;nan;100312.38;4918234;29;20216;-75
2022/03/17 07:54:20;;;;;;;31.98;20.83;;;;;;;8.61;nan;100319.22;4899612;29;20201;-75
2022/03/17 07:56:45;;;;;;;29.80;20.57;;;;;;;8.68;nan;100321.56;4920778;29;20641;-76
2022/03/17 07:59:11;;;;;;;32.30;21.13;;;;;;;8.69;nan;100324.09;4914665;29;20202;-77
2022/03/17 08:01:37;;;;;;;32.33;24.27;;;;;;;8.74;nan;100321.28;4915345;29;20568;-78
2022/03/17 08:04:02;;;;;;;27.67;20.70;;;;;;;8.78;nan;100328.09;4914528;29;20559;-74
2022/03/17 08:06:28;;;;;;;31.40;21.43;;;;;;;8.81;nan;100326.16;4916989;29;20218;-75
2022/03/17 08:08:54;;;;;;;31.00;22.23;;;;;;;8.85;nan;100322.47;4911224;29;20321;-77
2022/03/17 08:11:22;;;;;;;36.93;26.00;;;;;;;8.90;nan;100330.13;4917428;29;20805;-75
2022/03/17 08:13:47;;;;;;;35.80;27.27;;;;;;;8.97;nan;100335.97;4916699;29;20272;-78
2022/03/17 08:16:13;;;;;;;34.13;24.87;;;;;;;9.01;nan;100335.75;4916636;29;20867;-76
2022/03/17 08:18:38;;;;;;;31.30;20.67;;;;;;;9.06;nan;100346.88;4916447;29;20208;-75
2022/03/17 08:21:04;;;;;;;27.40;20.07;;;;;;;9.14;nan;100340.44;4915588;29;20217;-79
2022/03/17 08:23:30;;;;;;;30.98;22.30;;;;;;;9.19;nan;100348.94;4915512;29;21316;-76
2022/03/17 08:25:55;;;;;;;24.00;18.13;;;;;;;9.23;nan;100342.63;4912671;29;20342;-77
2022/03/17 08:28:21;;;;;;;31.17;19.67;;;;;;;9.28;nan;100345.88;4916931;29;20777;-77
2022/03/17 08:30:48;;;;;;;30.47;17.53;;;;;;;9.34;nan;100363.94;4915512;29;20205;-77
2022/03/17 08:33:18;;;;;;;27.17;18.45;;;;;;;9.40;nan;100355.81;4917270;29;20569;-80
2022/03/17 08:35:44;;;;;;;22.58;16.40;;;;;;;9.45;nan;100363.44;4918645;29;20210;-75
2022/03/17 08:38:11;;;;;;;27.23;15.55;;;;;;;9.50;nan;100366.69;4915737;29;20232;-78
2022/03/17 08:40:38;;;;;;;21.45;16.75;;;;;;;9.57;nan;100370.75;4917617;29;20210;-78
2022/03/17 08:43:08;;;;;;;24.83;16.23;;;;;;;9.66;nan;100367.66;4916994;29;20289;-75
2022/03/17 08:51:03;;;;;;;25.55;17.80;;;;;;;9.95;nan;100373.31;4927393;29;20233;-79
2022/03/17 08:53:28;;;;;;;23.50;15.30;;;;;;;10.03;nan;100368.53;4939310;29;20449;-76
2022/03/17 08:55:53;;;;;;;25.40;15.60;;;;;;;10.08;nan;100363.06;4937065;29;20225;-75
2022/03/17 08:58:19;;;;;;;20.63;13.90;;;;;;;10.17;nan;100359.97;4925925;29;20202;-75
2022/03/17 09:00:45;;;;;;;28.47;13.70;;;;;;;10.30;nan;100370.75;4921304;29;20256;-76
2022/03/17 09:03:10;;;;;;;18.47;13.83;;;;;;;10.37;nan;100369.50;4920617;29;20489;-78
2022/03/17 09:05:36;;;;;;;20.57;14.17;;;;;;;10.54;nan;100371.28;4921620;29;20206;-77
2022/03/17 09:08:06;;;;;;;17.43;14.63;;;;;;;10.81;nan;100372.47;4930339;29;20316;-78
2022/03/17 09:10:34;;;;;;;19.05;13.45;;;;;;;11.06;nan;100377.25;4935314;29;20288;-78
2022/03/17 09:13:06;;;;;;;23.20;15.15;;;;;;;11.30;nan;100369.00;4934972;29;20225;-75
2022/03/17 09:15:32;;;;;;;16.92;14.05;;;;;;;11.43;nan;100377.91;4927404;29;20216;-74
2022/03/17 09:17:58;;;;;;;18.10;13.73;;;;;;;11.61;nan;100372.56;4926329;29;20213;-78
2022/03/17 09:20:23;;;;;;;18.23;14.10;;;;;;;11.73;nan;100375.34;4925492;29;20460;-75
2022/03/17 09:22:49;;;;;;;21.50;14.93;;;;;;;11.71;nan;100376.38;4925152;29;20884;-75
2022/03/17 09:25:18;;;;;;;23.70;14.90;;;;;;;11.80;nan;100377.63;4924396;29;20217;-74
2022/03/17 09:27:44;;;;;;;18.63;15.27;;;;;;;12.01;nan;100365.09;4919838;29;20205;-76
2022/03/17 09:30:10;;;;;;;23.60;16.83;;;;;;;12.28;nan;100366.09;4917623;29;20237;-76
2022/03/17 09:32:35;;;;;;;27.00;18.47;;;;;;;12.53;nan;100369.91;4921628;29;20539;-75
2022/03/17 09:35:02;;;;;;;22.00;15.97;;;;;;;12.72;nan;100367.03;4916017;29;20221;-74
2022/03/17 09:37:28;;;;;;;27.75;18.67;;;;;;;12.80;nan;100372.72;4920473;29;20461;-74
2022/03/17 09:39:53;;;;;;;24.93;16.47;;;;;;;12.73;nan;100361.69;4920109;29;20834;-76
2022/03/17 09:42:20;;;;;;;26.33;16.87;;;;;;;12.56;nan;100362.69;4919373;29;20826;-76
2022/03/17 09:44:50;;;;;;;22.50;17.88;;;;;;;12.52;nan;100366.44;4916034;29;20213;-73
2022/03/17 09:47:20;;;;;;;22.88;16.17;;;;;;;12.61;nan;100363.28;4920159;29;20356;-76
2022/03/17 09:49:49;;;;;;;25.55;19.15;;;;;;;12.79;nan;100368.38;4916157;29;20572;-75
2022/03/17 09:52:17;;;;;;;22.80;17.23;;;;;;;12.92;nan;100366.69;4910439;29;20292;-74
2022/03/17 09:54:48;;;;;;;21.83;17.02;;;;;;;13.09;nan;100370.06;4909835;29;20214;-75
2022/03/17 09:57:16;;;;;;;31.75;19.23;;;;;;;13.23;nan;100376.19;4908886;29;20730;-74
2022/03/17 09:59:58;;;;;;;25.50;18.48;;;;;;;13.45;nan;100362.53;4910471;29;20563;-75
2022/03/17 10:02:25;;;;;;;29.25;20.65;;;;;;;13.68;nan;100373.41;4910000;29;20502;-75
2022/03/17 10:04:51;;;;;;;24.45;20.13;;;;;;;13.79;nan;100368.25;4909082;29;20686;-75
2022/03/17 10:07:20;;;;;;;27.05;17.08;;;;;;;13.87;nan;100367.78;4905722;29;20201;-76
2022/03/17 10:09:47;;;;;;;22.75;17.00;;;;;;;13.88;nan;100372.09;4905706;29;20252;-76
2022/03/17 10:12:14;;;;;;;29.83;19.35;;;;;;;14.00;nan;100376.59;4910040;29;20984;-74
2022/03/17 10:14:44;;;;;;;24.23;15.82;;;;;;;14.12;nan;100373.16;4894206;29;20209;-76
2022/03/17 10:17:33;;;;;;;25.88;17.88;;;;;;;14.19;nan;100370.09;4910664;29;21297;-76
2022/03/17 10:20:11;;;;;;;24.98;18.50;;;;;;;14.13;nan;100366.91;4907849;29;20216;-75
2022/03/17 10:22:48;;;;;;;25.08;17.58;;;;;;;14.15;nan;100378.22;4910058;29;20241;-76
2022/03/17 10:25:25;;;;;;;27.77;17.45;;;;;;;14.26;nan;100379.31;4912462;29;20223;-75
2022/03/17 10:27:54;;;;;;;25.38;18.80;;;;;;;14.38;nan;100383.75;4913148;29;20233;-75
2022/03/17 10:30:34;;;;;;;27.25;19.50;;;;;;;14.50;nan;100377.66;4910864;29;20264;-75
2022/03/17 10:33:11;;;;;;;26.67;19.00;;;;;;;14.58;nan;100371.88;4911759;29;20220;-75
2022/03/17 10:35:38;;;;;;;25.02;17.67;;;;;;;14.60;nan;100377.91;4914441;29;20216;-75
2022/03/17 10:38:15;;;;;;;26.60;19.50;;;;;;;14.61;nan;100376.97;4912492;29;20216;-75
2022/03/17 10:40:42;;;;;;;24.60;17.17;;;;;;;14.67;nan;100375.72;4913076;29;20578;-75
2022/03/17 10:43:15;;;;;;;25.70;18.23;;;;;;;14.69;nan;100387.88;4914807;29;20237;-75
2022/03/17 10:45:41;;;;;;;25.13;16.92;;;;;;;14.75;nan;100382.16;4909676;29;20225;-75
2022/03/17 10:48:07;;;;;;;28.90;17.80;;;;;;;14.80;nan;100387.97;4911323;29;20221;-75
2022/03/17 10:50:43;;;;;;;28.10;19.83;;;;;;;14.89;nan;100385.66;4914170;29;20214;-75
2022/03/17 10:53:10;;;;;;;26.02;18.08;;;;;;;14.83;nan;100394.84;4914843;29;20221;-75
2022/03/17 10:55:37;;;;;;;23.77;17.20;;;;;;;14.73;nan;100397.28;4911624;29;20205;-75
2022/03/17 10:58:14;;;;;;;29.67;21.00;;;;;;;14.68;nan;100395.91;4911237;29;20233;-75
2022/03/17 11:00:51;;;;;;;27.00;20.42;;;;;;;14.69;nan;100389.66;4908835;29;20587;-75
2022/03/17 11:03:18;;;;;;;32.28;24.17;;;;;;;14.76;nan;100407.63;4910342;29;20504;-75
2022/03/17 11:05:44;;;;;;;29.88;19.48;;;;;;;14.77;nan;100398.78;4912132;29;20236;-75
2022/03/17 11:08:10;;;;;;;30.83;20.45;;;;;;;14.82;nan;100401.06;4910502;29;20205;-75
2022/03/17 11:10:38;;;;;;;33.63;22.17;;;;;;;14.81;nan;100407.34;4911862;29;20750;-75
2022/03/17 11:13:09;;;;;;;37.72;23.00;;;;;;;14.75;nan;100395.38;4913286;29;20424;-75
2022/03/17 11:15:38;;;;;;;32.10;21.73;;;;;;;14.69;nan;100410.78;4911592;29;20197;-76
2022/03/17 11:18:12;;;;;;;30.25;20.02;;;;;;;14.62;nan;100412.19;4911307;29;20224;-75
2022/03/17 11:20:38;;;;;;;40.78;24.20;;;;;;;14.56;nan;100413.44;4910657;29;20218;-75
2022/03/17 11:23:22;;;;;;;31.10;21.57;;;;;;;14.49;nan;100425.34;4912500;29;20229;-75
2022/03/17 11:25:54;;;;;;;40.13;23.20;;;;;;;14.47;nan;100419.31;4911436;29;21416;-75
2022/03/17 11:28:40;;;;;;;31.58;21.83;;;;;;;14.43;nan;100420.47;4913096;29;20209;-75
2022/03/17 11:31:08;;;;;;;37.88;24.80;;;;;;;14.39;nan;100420.69;4912495;29;20296;-75
2022/03/17 11:33:44;;;;;;;37.05;22.40;;;;;;;14.35;nan;100424.47;4912605;29;20248;-75
2022/03/17 11:36:10;;;;;;;33.08;22.73;;;;;;;14.41;nan;100428.50;4909946;29;20233;-75
2022/03/17 11:38:37;;;;;;;34.73;22.33;;;;;;;14.43;nan;100437.16;4913631;29;20214;-74
2022/03/17 11:41:13;;;;;;;34.05;24.30;;;;;;;14.39;nan;100436.53;4915277;29;20202;-75
2022/03/17 11:43:40;;;;;;;33.35;22.58;;;;;;;14.37;nan;100430.50;4914015;29;20327;-75
2022/03/17 11:46:10;;;;;;;28.08;23.20;;;;;;;14.30;nan;100438.94;4909692;29;20269;-75
2022/03/17 11:48:36;;;;;;;30.58;22.73;;;;;;;14.17;nan;100441.53;4912713;29;20544;-75
2022/03/17 11:51:06;;;;;;;31.33;22.53;;;;;;;14.14;nan;100449.66;4909237;29;20205;-75